sensor_id;sensor_type;location;lat;lon;timestamp;pressure;altitude;pressure_sealevel;temperature;humidity
9460;BME280;4768;42.664;23.240;2023-04-30T00:01:34;-9657.81;;;8.68;100.00
9460;BME280;4768;42.664;23.240;2023-04-30T00:04:01;-9656.28;;;8.63;100.00
9460;BME280;4768;42.664;23.240;2023-04-30T00:06:29;-9662.09;;;8.83;100.00
9460;BME280;4768;42.664;23.240;2023-04-30T00:08:56;-9660.94;;;8.79;100.00
9460;BME280;4768;42.664;23.240;2023-04-30T00:11:23;-9659.66;;;8.75;100.00
9460;BME280;4768;42.664;23.240;2023-04-30T00:13:50;-9667.47;;;9.02;100.00
9460;BME280;4768;42.664;23.240;2023-04-30T00:16:17;-9671.16;;;9.15;100.00
9460;BME280;4768;42.664;23.240;2023-04-30T00:18:44;-9678.94;;;9.42;100.00
9460;BME280;4768;42.664;23.240;2023-04-30T00:21:11;-9679.94;;;9.46;100.00
9460;BME280;4768;42.664;23.240;2023-04-30T00:23:39;-9683.78;;;9.59;100.00
9460;BME280;4768;42.664;23.240;2023-04-30T00:26:06;-9682.94;;;9.56;100.00
9460;BME280;4768;42.664;23.240;2023-04-30T00:28:32;-9677.53;;;9.37;100.00
9460;BME280;4768;42.664;23.240;2023-04-30T00:30:59;-9674.41;;;9.26;100.00
9460;BME280;4768;42.664;23.240;2023-04-30T00:33:26;-9671.59;;;9.16;100.00
9460;BME280;4768;42.664;23.240;2023-04-30T00:35:53;-9666.34;;;8.98;100.00
9460;BME280;4768;42.664;23.240;2023-04-30T00:38:20;-9664.22;;;8.91;100.00
9460;BME280;4768;42.664;23.240;2023-04-30T00:40:48;-9660.25;;;8.77;100.00
9460;BME280;4768;42.664;23.240;2023-04-30T00:43:15;-9660.53;;;8.78;100.00
9460;BME280;4768;42.664;23.240;2023-04-30T00:45:42;-9663.94;;;8.90;100.00
9460;BME280;4768;42.664;23.240;2023-04-30T00:48:09;-9675.56;;;9.30;100.00
9460;BME280;4768;42.664;23.240;2023-04-30T00:50:37;-9682.06;;;9.53;100.00
9460;BME280;4768;42.664;23.240;2023-04-30T00:53:03;-9685.34;;;9.64;100.00
9460;BME280;4768;42.664;23.240;2023-04-30T00:55:31;-9684.63;;;9.62;100.00
9460;BME280;4768;42.664;23.240;2023-04-30T00:57:59;-9683.91;;;9.60;100.00
9460;BME280;4768;42.664;23.240;2023-04-30T01:00:26;-9679.81;;;9.45;100.00
9460;BME280;4768;42.664;23.240;2023-04-30T01:02:54;-9681.09;;;9.50;100.00
9460;BME280;4768;42.664;23.240;2023-04-30T01:05:21;-9690.59;;;9.83;100.00
9460;BME280;4768;42.664;23.240;2023-04-30T01:07:48;-9696.69;;;10.04;100.00
9460;BME280;4768;42.664;23.240;2023-04-30T01:10:16;-9698.69;;;10.11;100.00
9460;BME280;4768;42.664;23.240;2023-04-30T01:12:47;-9693.84;;;9.94;100.00
9460;BME280;4768;42.664;23.240;2023-04-30T01:15:22;-8672.56;;;10.09;100.00
9460;BME280;4768;42.664;23.240;2023-04-30T01:17:55;-1500.22;;;10.12;100.00
9460;BME280;4768;42.664;23.240;2023-04-30T01:20:23;2604.25;;;10.29;100.00
9460;BME280;4768;42.664;23.240;2023-04-30T01:22:54;2947.25;;;10.23;100.00
9460;BME280;4768;42.664;23.240;2023-04-30T01:25:48;3974.75;;;10.25;100.00
9460;BME280;4768;42.664;23.240;2023-04-30T01:28:19;5688.66;;;10.12;100.00
9460;BME280;4768;42.664;23.240;2023-04-30T01:30:48;7745.47;;;10.25;100.00
9460;BME280;4768;42.664;23.240;2023-04-30T01:33:15;10147.59;;;10.33;100.00
9460;BME280;4768;42.664;23.240;2023-04-30T01:36:09;7745.50;;;10.18;100.00
9460;BME280;4768;42.664;23.240;2023-04-30T01:39:13;8431.50;;;10.19;100.00
9460;BME280;4768;42.664;23.240;2023-04-30T01:41:53;6716.94;;;10.12;100.00
9460;BME280;4768;42.664;23.240;2023-04-30T01:44:34;2607.00;;;9.98;100.00
9460;BME280;4768;42.664;23.240;2023-04-30T01:47:10;-5931.09;;;9.61;100.00
9460;BME280;4768;42.664;23.240;2023-04-30T01:49:46;-9682.06;;;9.53;100.00
9460;BME280;4768;42.664;23.240;2023-04-30T01:52:23;-9660.38;;;8.77;100.00
9460;BME280;4768;42.664;23.240;2023-04-30T01:55:00;-9647.63;;;8.33;100.00
9460;BME280;4768;42.664;23.240;2023-04-30T01:57:31;-9642.81;;;8.16;100.00
9460;BME280;4768;42.664;23.240;2023-04-30T02:00:02;-9640.41;;;8.08;100.00
9460;BME280;4768;42.664;23.240;2023-04-30T02:02:30;-9638.84;;;8.02;100.00
9460;BME280;4768;42.664;23.240;2023-04-30T02:04:57;-9639.97;;;8.06;100.00
9460;BME280;4768;42.664;23.240;2023-04-30T02:07:36;-9643.22;;;8.18;100.00
9460;BME280;4768;42.664;23.240;2023-04-30T02:10:05;-9642.81;;;8.16;100.00
9460;BME280;4768;42.664;23.240;2023-04-30T02:12:32;-9640.69;;;8.09;100.00
9460;BME280;4768;42.664;23.240;2023-04-30T02:15:01;-9639.81;;;8.06;100.00
9460;BME280;4768;42.664;23.240;2023-04-30T02:17:28;-9637.84;;;7.99;100.00
9460;BME280;4768;42.664;23.240;2023-04-30T02:19:55;-9636.72;;;7.95;100.00
9460;BME280;4768;42.664;23.240;2023-04-30T02:22:22;-9634.59;;;7.87;100.00
9460;BME280;4768;42.664;23.240;2023-04-30T02:24:49;-9635.28;;;7.90;100.00
9460;BME280;4768;42.664;23.240;2023-04-30T02:27:16;-9636.28;;;7.93;100.00
9460;BME280;4768;42.664;23.240;2023-04-30T02:29:43;-9639.81;;;8.06;100.00
9460;BME280;4768;42.664;23.240;2023-04-30T02:32:11;-9640.09;;;8.07;100.00
9460;BME280;4768;42.664;23.240;2023-04-30T02:34:39;-9639.97;;;8.06;100.00
9460;BME280;4768;42.664;23.240;2023-04-30T02:37:05;-9641.38;;;8.11;100.00
9460;BME280;4768;42.664;23.240;2023-04-30T02:39:32;-9642.94;;;8.17;100.00
9460;BME280;4768;42.664;23.240;2023-04-30T02:41:59;-9649.31;;;8.39;100.00
9460;BME280;4768;42.664;23.240;2023-04-30T02:44:27;-9646.34;;;8.28;100.00
9460;BME280;4768;42.664;23.240;2023-04-30T02:46:54;-9647.47;;;8.32;100.00
9460;BME280;4768;42.664;23.240;2023-04-30T02:49:22;-9646.22;;;8.28;100.00
9460;BME280;4768;42.664;23.240;2023-04-30T02:51:49;-9645.50;;;8.25;100.00
9460;BME280;4768;42.664;23.240;2023-04-30T02:54:15;-9643.81;;;8.19;100.00
9460;BME280;4768;42.664;23.240;2023-04-30T02:56:42;-9645.06;;;8.24;100.00
9460;BME280;4768;42.664;23.240;2023-04-30T02:59:09;-9645.63;;;8.26;100.00
9460;BME280;4768;42.664;23.240;2023-04-30T03:01:36;-9647.19;;;8.31;100.00
9460;BME280;4768;42.664;23.240;2023-04-30T03:04:03;-9648.91;;;8.37;100.00
9460;BME280;4768;42.664;23.240;2023-04-30T03:06:31;-9646.34;;;8.28;100.00
9460;BME280;4768;42.664;23.240;2023-04-30T03:08:58;-9645.34;;;8.25;100.00
9460;BME280;4768;42.664;23.240;2023-04-30T03:11:25;-9646.34;;;8.28;100.00
9460;BME280;4768;42.664;23.240;2023-04-30T03:13:52;-9645.50;;;8.25;100.00
9460;BME280;4768;42.664;23.240;2023-04-30T03:16:20;-9645.22;;;8.24;100.00
9460;BME280;4768;42.664;23.240;2023-04-30T03:18:47;-9644.66;;;8.22;100.00
9460;BME280;4768;42.664;23.240;2023-04-30T03:21:15;-9645.22;;;8.24;100.00
9460;BME280;4768;42.664;23.240;2023-04-30T03:23:43;-9644.06;;;8.20;100.00
9460;BME280;4768;42.664;23.240;2023-04-30T03:26:10;-9643.38;;;8.18;100.00
9460;BME280;4768;42.664;23.240;2023-04-30T03:28:37;-9643.94;;;8.20;100.00
9460;BME280;4768;42.664;23.240;2023-04-30T03:31:04;-9646.22;;;8.28;100.00
9460;BME280;4768;42.664;23.240;2023-04-30T03:33:31;-9646.22;;;8.28;100.00
9460;BME280;4768;42.664;23.240;2023-04-30T03:35:57;-9646.22;;;8.28;100.00
9460;BME280;4768;42.664;23.240;2023-04-30T03:38:24;-9644.22;;;8.21;100.00
9460;BME280;4768;42.664;23.240;2023-04-30T03:40:53;-9643.50;;;8.18;100.00
9460;BME280;4768;42.664;23.240;2023-04-30T03:43:20;-9644.78;;;8.23;100.00
9460;BME280;4768;42.664;23.240;2023-04-30T03:45:47;-9644.66;;;8.22;100.00
9460;BME280;4768;42.664;23.240;2023-04-30T03:48:13;-9647.19;;;8.31;100.00
9460;BME280;4768;42.664;23.240;2023-04-30T03:50:40;-9647.34;;;8.32;100.00
9460;BME280;4768;42.664;23.240;2023-04-30T03:53:07;-9647.91;;;8.34;100.00
9460;BME280;4768;42.664;23.240;2023-04-30T03:55:34;-9647.47;;;8.32;100.00
9460;BME280;4768;42.664;23.240;2023-04-30T03:58:02;-9648.75;;;8.37;100.00
9460;BME280;4768;42.664;23.240;2023-04-30T04:00:29;-9647.75;;;8.33;100.00
9460;BME280;4768;42.664;23.240;2023-04-30T04:02:56;-9649.47;;;8.39;100.00
9460;BME280;4768;42.664;23.240;2023-04-30T04:05:23;-9650.59;;;8.43;100.00
9460;BME280;4768;42.664;23.240;2023-04-30T04:07:50;-9649.47;;;8.39;100.00
9460;BME280;4768;42.664;23.240;2023-04-30T04:10:17;-9648.63;;;8.36;100.00
9460;BME280;4768;42.664;23.240;2023-04-30T04:12:43;-9649.31;;;8.39;100.00
9460;BME280;4768;42.664;23.240;2023-04-30T04:15:12;-9650.19;;;8.42;100.00
9460;BME280;4768;42.664;23.240;2023-04-30T04:17:38;-9650.59;;;8.43;100.00
9460;BME280;4768;42.664;23.240;2023-04-30T04:20:06;-9651.59;;;8.47;100.00
9460;BME280;4768;42.664;23.240;2023-04-30T04:22:33;-9655.13;;;8.59;100.00
9460;BME280;4768;42.664;23.240;2023-04-30T04:25:00;-9659.25;;;8.73;100.00
9460;BME280;4768;42.664;23.240;2023-04-30T04:27:27;-9663.50;;;8.88;100.00
9460;BME280;4768;42.664;23.240;2023-04-30T04:29:54;-9667.47;;;9.02;100.00
9460;BME280;4768;42.664;23.240;2023-04-30T04:32:22;-9669.88;;;9.11;100.00
9460;BME280;4768;42.664;23.240;2023-04-30T04:34:49;-9673.56;;;9.23;100.00
9460;BME280;4768;42.664;23.240;2023-04-30T04:37:18;-9673.00;;;9.21;100.00
9460;BME280;4768;42.664;23.240;2023-04-30T04:39:45;-9673.13;;;9.22;100.00
9460;BME280;4768;42.664;23.240;2023-04-30T04:42:12;-9672.16;;;9.18;100.00
9460;BME280;4768;42.664;23.240;2023-04-30T04:44:39;-9670.16;;;9.12;100.00
9460;BME280;4768;42.664;23.240;2023-04-30T04:47:06;-9668.47;;;9.06;100.00
9460;BME280;4768;42.664;23.240;2023-04-30T04:49:35;-9668.59;;;9.06;100.00
9460;BME280;4768;42.664;23.240;2023-04-30T04:52:02;-9670.16;;;9.12;100.00
9460;BME280;4768;42.664;23.240;2023-04-30T04:54:29;-9673.44;;;9.23;100.00
9460;BME280;4768;42.664;23.240;2023-04-30T04:56:56;-9677.69;;;9.38;100.00
9460;BME280;4768;42.664;23.240;2023-04-30T04:59:23;-9680.66;;;9.48;100.00
9460;BME280;4768;42.664;23.240;2023-04-30T05:01:49;-9681.78;;;9.52;100.00
9460;BME280;4768;42.664;23.240;2023-04-30T05:04:16;-9684.06;;;9.60;100.00
9460;BME280;4768;42.664;23.240;2023-04-30T05:06:44;-9683.63;;;9.59;100.00
9460;BME280;4768;42.664;23.240;2023-04-30T05:09:11;-9685.47;;;9.65;100.00
9460;BME280;4768;42.664;23.240;2023-04-30T05:11:38;-9686.34;;;9.68;100.00
9460;BME280;4768;42.664;23.240;2023-04-30T05:14:05;-9686.03;;;9.67;100.00
9460;BME280;4768;42.664;23.240;2023-04-30T05:16:32;-9689.59;;;9.79;100.00
9460;BME280;4768;42.664;23.240;2023-04-30T05:18:59;-9690.72;;;9.83;100.00
9460;BME280;4768;42.664;23.240;2023-04-30T05:21:26;-9692.28;;;9.89;100.00
9460;BME280;4768;42.664;23.240;2023-04-30T05:23:55;-9689.72;;;9.80;100.00
9460;BME280;4768;42.664;23.240;2023-04-30T05:26:22;-9689.72;;;9.80;100.00
9460;BME280;4768;42.664;23.240;2023-04-30T05:28:49;-9694.13;;;9.95;100.00
9460;BME280;4768;42.664;23.240;2023-04-30T05:31:16;-9693.84;;;9.94;100.00
9460;BME280;4768;42.664;23.240;2023-04-30T05:33:43;-9688.88;;;9.77;100.00
9460;BME280;4768;42.664;23.240;2023-04-30T05:36:10;-9685.63;;;9.65;100.00
9460;BME280;4768;42.664;23.240;2023-04-30T05:38:36;-9688.03;;;9.74;100.00
9460;BME280;4768;42.664;23.240;2023-04-30T05:41:05;-9688.88;;;9.77;100.00
9460;BME280;4768;42.664;23.240;2023-04-30T05:43:31;-9694.69;;;9.97;100.00
9460;BME280;4768;42.664;23.240;2023-04-30T05:45:58;-9693.13;;;9.92;100.00
9460;BME280;4768;42.664;23.240;2023-04-30T05:48:25;-9697.81;;;10.08;100.00
9460;BME280;4768;42.664;23.240;2023-04-30T05:50:52;-9695.97;;;10.02;100.00
9460;BME280;4768;42.664;23.240;2023-04-30T05:53:21;-9695.28;;;9.99;100.00
9460;BME280;4768;42.664;23.240;2023-04-30T05:55:48;-9697.13;;;10.06;100.00
9460;BME280;4768;42.664;23.240;2023-04-30T05:58:16;-9697.41;;;10.07;100.00
9460;BME280;4768;42.664;23.240;2023-04-30T06:00:43;-9698.81;;;10.12;100.00
9460;BME280;4768;42.664;23.240;2023-04-30T06:03:09;-9697.97;;;10.09;100.00
9460;BME280;4768;42.664;23.240;2023-04-30T06:05:36;-9698.69;;;10.11;100.00
9460;BME280;4768;42.664;23.240;2023-04-30T06:08:05;-9697.53;;;10.07;100.00
9460;BME280;4768;42.664;23.240;2023-04-30T06:10:32;-9706.63;;;10.39;100.00
9460;BME280;4768;42.664;23.240;2023-04-30T06:12:59;-9708.19;;;10.44;100.00
9460;BME280;4768;42.664;23.240;2023-04-30T06:15:27;-9711.72;;;10.57;100.00
9460;BME280;4768;42.664;23.240;2023-04-30T06:17:53;-9718.41;;;10.80;100.00
9460;BME280;4768;42.664;23.240;2023-04-30T06:20:20;-9721.38;;;10.90;100.00
9460;BME280;4768;42.664;23.240;2023-04-30T06:22:47;-9724.09;;;11.00;100.00
9460;BME280;4768;42.664;23.240;2023-04-30T06:25:14;-9724.94;;;11.03;100.00
9460;BME280;4768;42.664;23.240;2023-04-30T06:27:40;-9725.06;;;11.03;100.00
9460;BME280;4768;42.664;23.240;2023-04-30T06:30:08;-9727.06;;;11.10;100.00
9460;BME280;4768;42.664;23.240;2023-04-30T06:32:36;-9728.47;;;11.15;100.00
9460;BME280;4768;42.664;23.240;2023-04-30T06:35:04;-9721.94;;;10.92;100.00
9460;BME280;4768;42.664;23.240;2023-04-30T06:37:31;-9722.81;;;10.95;100.00
9460;BME280;4768;42.664;23.240;2023-04-30T06:40:02;-9731.59;;;11.26;100.00
9460;BME280;4768;42.664;23.240;2023-04-30T06:42:29;-9760.72;;;12.27;100.00
9460;BME280;4768;42.664;23.240;2023-04-30T06:44:58;-9769.69;;;12.58;100.00
9460;BME280;4768;42.664;23.240;2023-04-30T06:47:25;-9767.28;;;12.50;100.00
9460;BME280;4768;42.664;23.240;2023-04-30T06:49:53;-9765.84;;;12.45;100.00
9460;BME280;4768;42.664;23.240;2023-04-30T06:52:20;-9766.13;;;12.46;100.00
9460;BME280;4768;42.664;23.240;2023-04-30T06:54:47;-9771.09;;;12.63;100.00
9460;BME280;4768;42.664;23.240;2023-04-30T06:57:13;-9764.16;;;12.39;100.00
9460;BME280;4768;42.664;23.240;2023-04-30T06:59:40;-9771.25;;;12.64;100.00
9460;BME280;4768;42.664;23.240;2023-04-30T07:02:07;-9772.66;;;12.69;100.00
9460;BME280;4768;42.664;23.240;2023-04-30T07:04:33;-9773.81;;;12.73;100.00
9460;BME280;4768;42.664;23.240;2023-04-30T07:07:02;-9773.25;;;12.71;100.00
9460;BME280;4768;42.664;23.240;2023-04-30T07:09:28;-9776.38;;;12.82;100.00
9460;BME280;4768;42.664;23.240;2023-04-30T07:11:56;-9786.59;;;13.17;100.00
9460;BME280;4768;42.664;23.240;2023-04-30T07:14:23;-4298.06;;;13.31;100.00
9460;BME280;4768;42.664;23.240;2023-04-30T07:16:51;6709.88;;;13.58;100.00
9460;BME280;4768;42.664;23.240;2023-04-30T07:19:18;6364.63;;;13.78;100.00
9460;BME280;4768;42.664;23.240;2023-04-30T07:21:45;2571.00;;;14.10;100.00
9460;BME280;4768;42.664;23.240;2023-04-30T07:24:13;13271.06;;;14.11;100.00
9460;BME280;4768;42.664;23.240;2023-04-30T07:26:40;28167.34;;;14.00;100.00
9460;BME280;4768;42.664;23.240;2023-04-30T07:29:06;21576.09;;;13.98;100.00
9460;BME280;4768;42.664;23.240;2023-04-30T07:31:33;36853.16;;;13.88;100.00
9460;BME280;4768;42.664;23.240;2023-04-30T07:34:00;36153.25;;;13.79;100.00
9460;BME280;4768;42.664;23.240;2023-04-30T07:36:26;28856.16;;;13.84;100.00
9460;BME280;4768;42.664;23.240;2023-04-30T07:38:53;29194.31;;;13.57;100.00
9460;BME280;4768;42.664;23.240;2023-04-30T07:41:23;25032.69;;;13.60;100.00
9460;BME280;4768;42.664;23.240;2023-04-30T07:43:50;18454.72;;;13.74;100.00
9460;BME280;4768;42.664;23.240;2023-04-30T07:46:17;12229.66;;;13.48;100.00
9460;BME280;4768;42.664;23.240;2023-04-30T09:12:57;171289.28;;;16.30;100.00
9460;BME280;4768;42.664;23.240;2023-04-30T09:15:24;171180.91;;;15.90;100.00
9460;BME280;4768;42.664;23.240;2023-04-30T09:18:05;171235.75;;;16.10;100.00
9460;BME280;4768;42.664;23.240;2023-04-30T09:20:32;171221.03;;;16.05;100.00
9460;BME280;4768;42.664;23.240;2023-04-30T09:23:04;171354.84;;;16.54;100.00
9460;BME280;4768;42.664;23.240;2023-04-30T09:25:37;171504.69;;;17.10;100.00
9460;BME280;4768;42.664;23.240;2023-04-30T09:28:10;171510.06;;;17.12;100.00
9460;BME280;4768;42.664;23.240;2023-04-30T09:30:38;171262.47;;;16.20;100.00
9460;BME280;4768;42.664;23.240;2023-04-30T09:33:04;171245.09;;;16.14;100.00
9460;BME280;4768;42.664;23.240;2023-04-30T09:35:32;171571.66;;;17.35;100.00
9460;BME280;4768;42.664;23.240;2023-04-30T09:38:00;171804.63;;;18.21;100.00
9460;BME280;4768;42.664;23.240;2023-04-30T09:40:37;171685.47;;;17.77;100.00
9460;BME280;4768;42.664;23.240;2023-04-30T09:43:05;171473.88;;;16.98;100.00
9460;BME280;4768;42.664;23.240;2023-04-30T09:45:43;171488.63;;;17.04;100.00
9460;BME280;4768;42.664;23.240;2023-04-30T09:48:12;171431.09;;;16.83;100.00
9460;BME280;4768;42.664;23.240;2023-04-30T09:50:41;171492.63;;;17.05;100.00
9460;BME280;4768;42.664;23.240;2023-04-30T09:53:11;171471.25;;;16.97;100.00
9460;BME280;4768;42.664;23.240;2023-04-30T09:55:42;171497.97;;;17.07;100.00
9460;BME280;4768;42.664;23.240;2023-04-30T09:58:10;171480.59;;;17.01;100.00
9460;BME280;4768;42.664;23.240;2023-04-30T10:00:37;171657.31;;;17.66;100.00
9460;BME280;4768;42.664;23.240;2023-04-30T10:03:08;171637.22;;;17.59;100.00
9460;BME280;4768;42.664;23.240;2023-04-30T10:05:37;171500.66;;;17.08;100.00
9460;BME280;4768;42.664;23.240;2023-04-30T10:32:40;-9789.03;;;13.26;100.00
9460;BME280;4768;42.664;23.240;2023-04-30T10:35:11;-9792.00;;;13.36;100.00
9460;BME280;4768;42.664;23.240;2023-04-30T10:37:46;-9790.03;;;13.29;100.00
9460;BME280;4768;42.664;23.240;2023-04-30T10:40:14;-9791.72;;;13.35;100.00
9460;BME280;4768;42.664;23.240;2023-04-30T10:42:44;-9806.78;;;13.88;100.00
9460;BME280;4768;42.664;23.240;2023-04-30T10:45:11;-9821.88;;;14.40;100.00
9460;BME280;4768;42.664;23.240;2023-04-30T10:47:43;-9829.44;;;14.66;100.00
9460;BME280;4768;42.664;23.240;2023-04-30T10:50:11;-7431.84;;;15.09;100.00
9460;BME280;4768;42.664;23.240;2023-04-30T10:52:38;58210.88;;;14.60;100.00
9460;BME280;4768;42.664;23.240;2023-04-30T10:55:07;57875.53;;;14.79;100.00
9460;BME280;4768;42.664;23.240;2023-04-30T10:57:40;76557.03;;;15.15;100.00
9460;BME280;4768;42.664;23.240;2023-04-30T11:00:17;81171.28;;;15.35;100.00
9460;BME280;4768;42.664;23.240;2023-04-30T11:02:46;171085.97;;;15.55;100.00
9460;BME280;4768;42.664;23.240;2023-04-30T11:05:15;171164.88;;;15.84;100.00
9460;BME280;4768;42.664;23.240;2023-04-30T11:07:46;171281.25;;;16.27;100.00
9460;BME280;4768;42.664;23.240;2023-04-30T11:12:40;171358.88;;;16.56;100.00
9460;BME280;4768;42.664;23.240;2023-04-30T11:15:12;171439.13;;;16.86;100.00
9460;BME280;4768;42.664;23.240;2023-04-30T11:17:42;171360.19;;;16.56;100.00
9460;BME280;4768;42.664;23.240;2023-04-30T11:20:11;171463.22;;;16.94;100.00
9460;BME280;4768;42.664;23.240;2023-04-30T11:22:38;171388.28;;;16.67;100.00
9460;BME280;4768;42.664;23.240;2023-04-30T11:25:06;171382.94;;;16.65;100.00
9460;BME280;4768;42.664;23.240;2023-04-30T11:27:35;171285.28;;;16.29;100.00
9460;BME280;4768;42.664;23.240;2023-04-30T11:30:03;171320.06;;;16.42;100.00
9460;BME280;4768;42.664;23.240;2023-04-30T11:32:35;171270.53;;;16.23;100.00
9460;BME280;4768;42.664;23.240;2023-04-30T11:35:04;171278.56;;;16.26;100.00
9460;BME280;4768;42.664;23.240;2023-04-30T11:37:34;171336.13;;;16.47;100.00
9460;BME280;4768;42.664;23.240;2023-04-30T11:40:03;171338.81;;;16.48;100.00
9460;BME280;4768;42.664;23.240;2023-04-30T11:42:31;171416.38;;;16.77;100.00
9460;BME280;4768;42.664;23.240;2023-04-30T11:45:04;171443.16;;;16.87;100.00
9460;BME280;4768;42.664;23.240;2023-04-30T11:47:38;171448.47;;;16.89;100.00
9460;BME280;4768;42.664;23.240;2023-04-30T11:50:07;171552.91;;;17.28;100.00
9460;BME280;4768;42.664;23.240;2023-04-30T11:52:35;171555.59;;;17.29;100.00
9460;BME280;4768;42.664;23.240;2023-04-30T11:55:05;171540.84;;;17.23;100.00
9460;BME280;4768;42.664;23.240;2023-04-30T11:57:38;171472.56;;;16.98;100.00
9460;BME280;4768;42.664;23.240;2023-04-30T12:00:13;171512.72;;;17.13;100.00
9460;BME280;4768;42.664;23.240;2023-04-30T12:02:41;171673.34;;;17.72;100.00
9460;BME280;4768;42.664;23.240;2023-04-30T12:05:14;171500.66;;;17.08;100.00
9460;BME280;4768;42.664;23.240;2023-04-30T12:07:46;171586.41;;;17.40;100.00
9460;BME280;4768;42.664;23.240;2023-04-30T12:10:13;171477.91;;;17.00;100.00
9460;BME280;4768;42.664;23.240;2023-04-30T12:12:42;171448.47;;;16.89;100.00
9460;BME280;4768;42.664;23.240;2023-04-30T12:15:13;171404.34;;;16.73;100.00
9460;BME280;4768;42.664;23.240;2023-04-30T12:17:41;171392.28;;;16.68;100.00
9460;BME280;4768;42.664;23.240;2023-04-30T12:20:09;171598.44;;;17.44;100.00
9460;BME280;4768;42.664;23.240;2023-04-30T12:22:36;171534.22;;;17.21;100.00
9460;BME280;4768;42.664;23.240;2023-04-30T12:25:07;171417.69;;;16.78;100.00
9460;BME280;4768;42.664;23.240;2023-04-30T12:27:35;171245.09;;;16.14;100.00
9460;BME280;4768;42.664;23.240;2023-04-30T12:30:05;171112.72;;;15.65;100.00
9460;BME280;4768;42.664;23.240;2023-04-30T12:32:37;170973.63;;;15.13;100.00
9460;BME280;4768;42.664;23.240;2023-04-30T12:35:05;170890.78;;;14.83;100.00
9460;BME280;4768;42.664;23.240;2023-04-30T12:37:32;170910.81;;;14.90;100.00
9460;BME280;4768;42.664;23.240;2023-04-30T12:39:59;170786.56;;;14.44;100.00
9460;BME280;4768;42.664;23.240;2023-04-30T12:42:31;158889.56;;;14.55;100.00
9460;BME280;4768;42.664;23.240;2023-04-30T12:45:00;163183.47;;;14.40;100.00
9460;BME280;4768;42.664;23.240;2023-04-30T12:47:28;146271.41;;;14.51;100.00
9460;BME280;4768;42.664;23.240;2023-04-30T12:49:55;160683.22;;;14.50;100.00
9460;BME280;4768;42.664;23.240;2023-04-30T12:52:24;147392.59;;;14.69;100.00
9460;BME280;4768;42.664;23.240;2023-04-30T12:54:51;122689.47;;;14.90;100.00
9460;BME280;4768;42.664;23.240;2023-04-30T12:57:18;154631.09;;;14.84;100.00
9460;BME280;4768;42.664;23.240;2023-04-30T12:59:57;148186.81;;;15.01;100.00
9460;BME280;4768;42.664;23.240;2023-04-30T13:02:27;170957.59;;;15.07;100.00
9460;BME280;4768;42.664;23.240;2023-04-30T13:21:53;161961.97;;;15.27;100.00
9460;BME280;4768;42.664;23.240;2023-04-30T13:24:20;171063.22;;;15.47;100.00
9460;BME280;4768;42.664;23.240;2023-04-30T13:26:47;171100.69;;;15.60;100.00
9460;BME280;4768;42.664;23.240;2023-04-30T13:29:14;171182.22;;;15.91;100.00
9460;BME280;4768;42.664;23.240;2023-04-30T13:31:41;171126.06;;;15.70;100.00
9460;BME280;4768;42.664;23.240;2023-04-30T13:34:07;171222.34;;;16.05;100.00
9460;BME280;4768;42.664;23.240;2023-04-30T13:36:35;171263.84;;;16.21;100.00
9460;BME280;4768;42.664;23.240;2023-04-30T13:39:03;171293.28;;;16.32;100.00
9460;BME280;4768;42.664;23.240;2023-04-30T13:41:31;171243.78;;;16.13;100.00
9460;BME280;4768;42.664;23.240;2023-04-30T13:43:58;171258.44;;;16.19;100.00
9460;BME280;4768;42.664;23.240;2023-04-30T13:46:25;171209.00;;;16.00;100.00
9460;BME280;4768;42.664;23.240;2023-04-30T13:48:52;171151.47;;;15.79;100.00
9460;BME280;4768;42.664;23.240;2023-04-30T13:51:19;171198.28;;;15.96;100.00
9460;BME280;4768;42.664;23.240;2023-04-30T13:58:37;171246.41;;;16.14;100.00
9460;BME280;4768;42.664;23.240;2023-04-30T14:01:04;171329.41;;;16.45;100.00
9460;BME280;4768;42.664;23.240;2023-04-30T14:03:31;171261.16;;;16.20;100.00
9460;BME280;4768;42.664;23.240;2023-04-30T14:05:58;171167.56;;;15.85;100.00
9460;BME280;4768;42.664;23.240;2023-04-30T14:08:24;171188.94;;;15.93;100.00
9460;BME280;4768;42.664;23.240;2023-04-30T14:10:51;171188.94;;;15.93;100.00
9460;BME280;4768;42.664;23.240;2023-04-30T14:13:18;171139.44;;;15.75;100.00
9460;BME280;4768;42.664;23.240;2023-04-30T14:15:46;171156.84;;;15.81;100.00
9460;BME280;4768;42.664;23.240;2023-04-30T14:18:13;171156.84;;;15.81;100.00
9460;BME280;4768;42.664;23.240;2023-04-30T14:20:40;171138.09;;;15.74;100.00
9460;BME280;4768;42.664;23.240;2023-04-30T14:23:07;171155.47;;;15.81;100.00
9460;BME280;4768;42.664;23.240;2023-04-30T14:25:34;171164.88;;;15.84;100.00
9460;BME280;4768;42.664;23.240;2023-04-30T14:28:01;171190.25;;;15.94;100.00
9460;BME280;4768;42.664;23.240;2023-04-30T14:30:27;171235.75;;;16.10;100.00
9460;BME280;4768;42.664;23.240;2023-04-30T14:32:55;171219.72;;;16.04;100.00
9460;BME280;4768;42.664;23.240;2023-04-30T15:11:40;171451.19;;;16.90;100.00
9460;BME280;4768;42.664;23.240;2023-04-30T15:14:07;171500.66;;;17.08;100.00
9460;BME280;4768;42.664;23.240;2023-04-30T15:16:35;171583.69;;;17.39;100.00
9460;BME280;4768;42.664;23.240;2023-04-30T15:19:02;171535.53;;;17.21;100.00
9460;BME280;4768;42.664;23.240;2023-04-30T15:21:29;171497.97;;;17.07;100.00
9460;BME280;4768;42.664;23.240;2023-04-30T15:23:56;171390.97;;;16.68;100.00
9460;BME280;4768;42.664;23.240;2023-04-30T15:26:22;171380.25;;;16.64;100.00
9460;BME280;4768;42.664;23.240;2023-04-30T15:28:51;171439.13;;;16.86;100.00
9460;BME280;4768;42.664;23.240;2023-04-30T15:31:18;171429.72;;;16.82;100.00
9460;BME280;4768;42.664;23.240;2023-04-30T15:33:44;171463.22;;;16.94;100.00
9460;BME280;4768;42.664;23.240;2023-04-30T15:36:11;171404.34;;;16.73;100.00
9460;BME280;4768;42.664;23.240;2023-04-30T15:38:38;171427.09;;;16.81;100.00
9460;BME280;4768;42.664;23.240;2023-04-30T15:41:05;171497.97;;;17.07;100.00
9460;BME280;4768;42.664;23.240;2023-04-30T15:43:31;171416.38;;;16.77;100.00
9460;BME280;4768;42.664;23.240;2023-04-30T15:45:59;171471.25;;;16.97;100.00
9460;BME280;4768;42.664;23.240;2023-04-30T15:48:26;171495.34;;;17.06;100.00
9460;BME280;4768;42.664;23.240;2023-04-30T15:50:53;171326.72;;;16.44;100.00
9460;BME280;4768;42.664;23.240;2023-04-30T15:53:20;171380.25;;;16.64;100.00
9460;BME280;4768;42.664;23.240;2023-04-30T15:55:47;171397.63;;;16.70;100.00